Time;durP1;ratioP1;P1;durP2;ratioP2;P2;SDS_P1;SDS_P2;PMS_P1;PMS_P2;Temp;Humidity;BMP_temperature;BMP_pressure;BME280_temperature;BME280_humidity;BME280_pressure;Samples;Min_cycle;Max_cycle;Signal;HPM_P1;HPM_P2
2021/04/09 00:02:29;;;;;;;31.93;13.90;;;;;;;1.04;61.54;100986.22;2200399;80;31147;-71
2021/04/09 00:05:31;;;;;;;22.67;12.00;;;;;;;1.02;61.55;100987.11;2210994;80;33100;-71
2021/04/09 00:08:33;;;;;;;26.70;12.37;;;;;;;0.98;61.65;100985.34;2214059;80;29812;-71
2021/04/09 00:11:36;;;;;;;25.88;11.55;;;;;;;0.94;61.67;100988.42;2204078;80;28260;-71
2021/04/09 00:14:38;;;;;;;22.17;11.08;;;;;;;0.89;61.64;100987.10;2208781;80;28924;-71
2021/04/09 00:17:43;;;;;;;32.25;14.18;;;;;;;0.86;61.56;100988.83;2215250;80;31126;-71
2021/04/09 00:20:45;;;;;;;34.20;15.08;;;;;;;0.81;61.76;100991.47;2197690;80;33045;-71
2021/04/09 00:23:47;;;;;;;41.60;16.85;;;;;;;0.78;61.78;100988.81;2189966;80;28857;-71
2021/04/09 00:26:51;;;;;;;36.03;16.97;;;;;;;0.74;61.99;100994.53;2199342;80;27646;-72
2021/04/09 00:29:53;;;;;;;36.60;17.73;;;;;;;0.69;61.96;100991.45;2207308;80;28862;-72
2021/04/09 00:32:55;;;;;;;43.40;21.20;;;;;;;0.64;62.09;101004.63;2196016;80;31373;-72
2021/04/09 00:35:57;;;;;;;44.35;19.95;;;;;;;0.61;62.07;100995.39;2216553;80;33971;-72
2021/04/09 00:38:59;;;;;;;46.58;21.52;;;;;;;0.60;62.26;100992.31;2206786;80;29262;-72
2021/04/09 00:42:02;;;;;;;47.67;21.33;;;;;;;0.58;62.25;100991.42;2209554;80;27941;-72
2021/04/09 00:45:06;;;;;;;54.20;24.92;;;;;;;0.55;62.27;100992.73;2207891;80;29737;-72
2021/04/09 00:48:09;;;;;;;60.80;26.27;;;;;;;0.51;62.41;100986.58;2210931;80;32183;-72
2021/04/09 00:51:12;;;;;;;61.92;24.57;;;;;;;0.47;62.54;100993.16;2210881;80;33988;-72
2021/04/09 00:54:14;;;;;;;79.70;27.90;;;;;;;0.45;62.58;100995.77;2163207;80;28930;-72
2021/04/09 00:57:16;;;;;;;100.55;30.80;;;;;;;0.41;62.62;100994.89;2181424;80;28262;-72
2021/04/09 01:00:20;;;;;;;99.90;31.75;;;;;;;0.37;62.67;100987.84;2209303;80;28810;-72
2021/04/09 01:03:22;;;;;;;116.25;32.88;;;;;;;0.32;62.69;100992.23;2195486;78;31183;-72
2021/04/09 01:06:24;;;;;;;108.80;30.75;;;;;;;0.30;62.68;100995.30;2179255;80;33100;-72
2021/04/09 01:09:26;;;;;;;103.40;31.62;;;;;;;0.24;62.75;100996.16;2215273;80;28656;-72
2021/04/09 01:12:28;;;;;;;106.83;31.93;;;;;;;0.22;62.79;100997.00;2203065;80;28264;-72
2021/04/09 01:15:30;;;;;;;112.30;33.53;;;;;;;0.23;62.87;100994.81;2209485;80;28818;-72
2021/04/09 01:18:49;;;;;;;113.03;32.65;;;;;;;0.20;62.90;100989.52;2187599;80;31203;-72
2021/04/09 01:21:55;;;;;;;105.12;32.98;;;;;;;0.18;62.92;100980.31;2180965;80;33114;-73
2021/04/09 01:25:14;;;;;;;107.70;31.05;;;;;;;0.15;62.92;100985.56;2193465;80;28857;-72
2021/04/09 01:28:26;;;;;;;87.82;27.62;;;;;;;0.14;63.00;100986.01;2210102;80;27728;-73
2021/04/09 01:31:50;;;;;;;67.87;23.55;;;;;;;0.11;62.99;100986.41;2205974;80;29775;-72
2021/04/09 01:34:56;;;;;;;60.38;22.75;;;;;;;0.08;63.18;100983.34;2205590;80;31142;-73
2021/04/09 01:38:04;;;;;;;51.85;20.48;;;;;;;0.06;63.21;100977.62;2182166;78;33403;-72
2021/04/09 01:41:07;;;;;;;50.65;19.60;;;;;;;0.02;63.33;100977.16;2182028;80;28907;-72
2021/04/09 01:44:11;;;;;;;39.70;17.20;;;;;;;0.01;63.35;100971.45;2185735;80;27701;-73
2021/04/09 01:47:14;;;;;;;35.23;17.10;;;;;;;-0.03;63.42;100967.92;2192660;80;28888;-72
2021/04/09 01:50:18;;;;;;;37.60;16.73;;;;;;;-0.04;63.45;100963.53;2192861;80;31137;-72
2021/04/09 01:53:22;;;;;;;36.98;16.35;;;;;;;-0.06;63.56;100963.50;2202895;80;33546;-72
2021/04/09 01:56:25;;;;;;;40.60;16.32;;;;;;;-0.09;63.50;100960.88;2210733;80;28856;-72
2021/04/09 01:59:29;;;;;;;37.15;16.95;;;;;;;-0.09;63.64;100966.15;2213075;80;27579;-73
2021/04/09 02:02:31;;;;;;;40.58;17.07;;;;;;;-0.09;63.63;100958.67;2209827;80;28817;-72
2021/04/09 02:05:34;;;;;;;39.35;17.07;;;;;;;-0.09;63.78;100956.03;2196696;80;31388;-72
2021/04/09 02:08:37;;;;;;;40.63;18.12;;;;;;;-0.10;63.77;100949.91;2143146;83;33123;-72
2021/04/09 02:11:40;;;;;;;39.73;17.70;;;;;;;-0.11;63.85;100946.82;2159294;81;30125;-72
2021/04/09 02:14:43;;;;;;;40.75;17.02;;;;;;;-0.11;63.93;100939.34;2180472;81;27607;-73
2021/04/09 02:17:45;;;;;;;38.33;16.42;;;;;;;-0.12;64.00;100936.26;2175129;81;28794;-71
2021/04/09 02:20:48;;;;;;;34.53;15.70;;;;;;;-0.13;63.99;100934.08;2149844;81;32113;-71
2021/04/09 02:23:50;;;;;;;39.55;15.98;;;;;;;-0.14;64.10;100930.10;2175050;81;34251;-72
2021/04/09 02:26:52;;;;;;;31.07;13.80;;;;;;;-0.14;64.14;100927.05;2117555;83;28863;-72
2021/04/09 02:29:55;;;;;;;29.27;14.90;;;;;;;-0.14;64.23;100924.84;2145675;82;27763;-72
2021/04/09 02:32:57;;;;;;;30.25;13.20;;;;;;;-0.14;64.25;100926.16;2148664;82;28811;-72
2021/04/09 02:35:59;;;;;;;29.30;14.23;;;;;;;-0.14;64.47;100920.47;2132045;82;31612;-71
2021/04/09 02:39:09;;;;;;;27.32;13.22;;;;;;;-0.14;64.38;100916.94;2125001;82;34186;-72
2021/04/09 02:42:12;;;;;;;23.67;12.78;;;;;;;-0.13;64.39;100922.65;2135943;82;29681;-73
2021/04/09 02:45:15;;;;;;;25.25;12.70;;;;;;;-0.13;64.42;100914.33;2146424;82;27628;-73
2021/04/09 02:48:18;;;;;;;27.20;12.95;;;;;;;-0.14;64.52;100915.20;2147672;82;28784;-73
2021/04/09 02:51:21;;;;;;;22.52;12.35;;;;;;;-0.13;64.53;100906.84;2121752;82;31201;-72
2021/04/09 02:54:24;;;;;;;22.85;12.28;;;;;;;-0.13;64.57;100910.80;2182511;81;33553;-72
2021/04/09 02:57:28;;;;;;;23.73;12.13;;;;;;;-0.13;64.66;100907.75;2150494;81;28913;-72
2021/04/09 03:00:30;;;;;;;30.70;12.68;;;;;;;-0.13;64.66;100900.27;2124295;83;27688;-71
2021/04/09 03:03:33;;;;;;;21.40;11.30;;;;;;;-0.13;64.75;100897.21;2119256;83;28897;-71
2021/04/09 03:06:37;;;;;;;20.62;10.90;;;;;;;-0.13;64.74;100893.26;2127539;83;31511;-72
2021/04/09 03:09:39;;;;;;;32.80;13.13;;;;;;;-0.11;64.89;100886.67;2124380;83;34082;-72
2021/04/09 03:12:42;;;;;;;31.05;14.30;;;;;;;-0.11;64.79;100886.67;2142858;81;28835;-72
2021/04/09 03:15:54;;;;;;;32.17;14.40;;;;;;;-0.11;64.85;100884.03;2129422;83;27714;-71
2021/04/09 03:18:56;;;;;;;24.67;12.95;;;;;;;-0.09;64.91;100884.51;2141603;82;31875;-73
2021/04/09 03:21:58;;;;;;;24.95;12.60;;;;;;;-0.07;64.93;100886.68;2118731;83;31982;-70
2021/04/09 03:25:01;;;;;;;26.15;12.85;;;;;;;-0.07;64.91;100879.23;2140287;83;34381;-70
2021/04/09 03:28:06;;;;;;;26.70;12.05;;;;;;;-0.06;64.85;100879.22;2141765;83;28986;-71
2021/04/09 03:31:09;;;;;;;25.05;11.75;;;;;;;-0.06;64.96;100876.59;2122970;83;27614;-75
2021/04/09 03:34:11;;;;;;;23.65;12.68;;;;;;;-0.05;64.95;100875.72;2140859;83;28805;-73
2021/04/09 03:37:13;;;;;;;27.93;12.78;;;;;;;-0.04;64.97;100873.53;2142505;83;31649;-73
2021/04/09 03:40:16;;;;;;;21.12;12.98;;;;;;;-0.04;64.96;100866.08;2125869;82;33313;-74
2021/04/09 03:43:18;;;;;;;24.35;11.88;;;;;;;-0.04;64.96;100864.31;2107057;83;28042;-74
2021/04/09 03:46:20;;;;;;;30.15;13.08;;;;;;;-0.03;64.94;100870.02;2141028;83;27653;-74
2021/04/09 03:49:22;;;;;;;24.37;12.58;;;;;;;-0.03;64.98;100867.39;2133703;83;28800;-73
2021/04/09 03:52:24;;;;;;;24.45;12.07;;;;;;;-0.02;64.92;100865.66;2123058;83;31142;-73
2021/04/09 03:55:26;;;;;;;20.88;12.65;;;;;;;-0.03;64.99;100858.62;2145746;82;33992;-74
2021/04/09 03:58:29;;;;;;;25.62;11.68;;;;;;;-0.03;64.96;100857.30;2160949;82;29603;-74
2021/04/09 04:01:31;;;;;;;24.85;11.40;;;;;;;-0.05;65.02;100845.88;2094652;82;28196;-74
2021/04/09 04:04:33;;;;;;;21.70;10.50;;;;;;;-0.05;65.00;100854.64;2146129;82;27900;-72
2021/04/09 04:07:35;;;;;;;24.77;11.68;;;;;;;-0.05;64.98;100848.52;2124080;82;31159;-74
2021/04/09 04:10:37;;;;;;;30.65;11.97;;;;;;;-0.04;65.01;100849.83;2110018;82;33105;-73
2021/04/09 04:13:39;;;;;;;33.40;15.48;;;;;;;-0.03;65.00;100845.45;2134425;82;29174;-73
2021/04/09 04:16:41;;;;;;;32.48;13.72;;;;;;;-0.01;65.03;100839.76;2110169;82;27772;-73
2021/04/09 04:19:43;;;;;;;25.82;12.88;;;;;;;-0.01;65.03;100843.25;2137530;82;29848;-73
2021/04/09 04:22:45;;;;;;;29.27;12.28;;;;;;;0.02;64.98;100837.55;2118524;82;31145;-72
2021/04/09 04:25:47;;;;;;;29.98;13.13;;;;;;;0.03;64.99;100832.28;2129827;82;33206;-72
2021/04/09 04:28:50;;;;;;;27.80;12.40;;;;;;;0.07;64.89;100835.82;2130124;82;29206;-73
2021/04/09 04:31:52;;;;;;;25.08;13.28;;;;;;;0.11;64.99;100832.30;2135205;82;27737;-72
2021/04/09 04:34:54;;;;;;;24.75;12.73;;;;;;;0.15;64.91;100828.80;2110179;82;28825;-72
2021/04/09 04:37:59;;;;;;;31.00;14.33;;;;;;;0.20;64.94;100831.02;2145269;82;31354;-73
2021/04/09 04:41:00;;;;;;;25.37;12.60;;;;;;;0.26;64.98;100824.87;2123838;82;34126;-72
2021/04/09 04:44:02;;;;;;;24.98;13.32;;;;;;;0.32;64.88;100820.03;2125016;82;29239;-71
2021/04/09 04:47:05;;;;;;;25.62;12.95;;;;;;;0.39;64.90;100825.31;2146084;82;27648;-71
2021/04/09 04:50:08;;;;;;;24.02;12.20;;;;;;;0.47;64.85;100831.91;2124726;82;28805;-71
2021/04/09 04:53:10;;;;;;;24.85;11.63;;;;;;;0.56;64.76;100828.39;2137800;82;32033;-72
2021/04/09 04:56:12;;;;;;;23.73;12.73;;;;;;;0.64;64.69;100832.35;2144104;83;32830;-72
2021/04/09 04:59:14;;;;;;;22.25;11.90;;;;;;;0.74;64.64;100823.58;2165161;81;29048;-72
2021/04/09 05:02:16;;;;;;;23.60;11.90;;;;;;;0.86;64.61;100821.34;2157448;82;27702;-72
2021/04/09 05:05:18;;;;;;;20.52;10.50;;;;;;;1.00;64.42;100820.02;2151728;82;29186;-72
2021/04/09 05:08:20;;;;;;;22.25;10.20;;;;;;;1.15;64.34;100816.48;2126682;83;31157;-73
2021/04/09 05:11:22;;;;;;;25.77;9.20;;;;;;;1.35;64.21;100825.19;2125315;83;33995;-71
2021/04/09 05:14:25;;;;;;;20.05;9.15;;;;;;;1.53;63.96;100819.41;2142959;83;29169;-73
2021/04/09 05:17:28;;;;;;;21.37;9.65;;;;;;;1.72;63.76;100818.91;2108744;83;27609;-72
2021/04/09 05:20:30;;;;;;;22.00;10.05;;;;;;;1.92;63.58;100815.27;2124758;83;28836;-72
2021/04/09 05:23:32;;;;;;;21.25;9.65;;;;;;;2.09;63.32;100817.36;2134934;83;30937;-71
2021/04/09 05:26:34;;;;;;;18.87;9.68;;;;;;;2.25;63.03;100815.94;2124468;83;33111;-70
2021/04/09 05:29:37;;;;;;;24.18;9.70;;;;;;;2.37;62.84;100816.30;2124571;83;29108;-71
2021/04/09 05:32:39;;;;;;;26.02;9.88;;;;;;;2.48;62.61;100812.26;2133963;83;27789;-71
2021/04/09 05:35:41;;;;;;;21.45;8.45;;;;;;;2.58;62.39;100809.53;2109480;83;29684;-71
2021/04/09 05:38:43;;;;;;;18.00;8.90;;;;;;;2.68;61.97;100810.76;2134310;83;32272;-59
2021/04/09 05:41:45;;;;;;;16.35;8.73;;;;;;;2.81;62.10;100808.46;2113336;83;34174;-59
2021/04/09 05:44:47;;;;;;;21.42;9.58;;;;;;;2.97;61.90;100801.69;2106801;84;29172;-61
2021/04/09 05:47:49;;;;;;;15.68;8.10;;;;;;;3.21;61.65;100805.84;2123867;83;28125;-58
2021/04/09 05:50:52;;;;;;;18.02;8.78;;;;;;;3.50;61.38;100793.56;2106223;84;30191;-59
2021/04/09 05:53:54;;;;;;;15.30;7.80;;;;;;;3.80;61.24;100794.52;2106753;83;31555;-58
2021/04/09 05:56:58;;;;;;;19.00;8.50;;;;;;;4.03;60.51;100785.38;2146711;82;33171;-58
2021/04/09 06:00:02;;;;;;;12.07;6.93;;;;;;;4.25;60.56;100785.92;2129587;82;29165;-58
2021/04/09 06:03:05;;;;;;;13.88;7.90;;;;;;;4.48;59.73;100784.66;2146018;82;27717;-58
2021/04/09 06:06:07;;;;;;;12.85;7.25;;;;;;;4.84;59.07;100780.95;2108352;83;29843;-57
2021/04/09 06:09:09;;;;;;;15.10;6.12;;;;;;;5.30;58.99;100780.06;2106104;84;32309;-58
2021/04/09 06:12:13;;;;;;;16.20;7.75;;;;;;;5.80;58.17;100775.04;2123185;83;34539;-58
2021/04/09 06:15:15;;;;;;;11.18;6.20;;;;;;;6.23;57.25;100768.78;2124339;82;29170;-60
2021/04/09 06:18:17;;;;;;;13.98;7.22;;;;;;;6.70;56.88;100766.28;2142212;83;27703;-58
2021/04/09 06:21:20;;;;;;;13.55;6.42;;;;;;;7.21;56.86;100756.91;2121073;83;28834;-58
2021/04/09 06:24:23;;;;;;;11.65;5.42;;;;;;;7.73;55.91;100749.63;2106910;84;31205;-60
2021/04/09 06:27:25;;;;;;;12.98;6.03;;;;;;;8.20;55.17;100740.58;2134476;83;34127;-60
2021/04/09 06:30:28;;;;;;;12.85;5.65;;;;;;;8.62;53.86;100737.89;2142492;83;29164;-65
2021/04/09 06:33:30;;;;;;;11.45;5.22;;;;;;;9.06;53.50;100740.39;2106840;84;27998;-58
2021/04/09 06:36:32;;;;;;;9.18;5.42;;;;;;;9.50;52.22;100731.17;2121316;83;28889;-59
2021/04/09 06:39:35;;;;;;;10.53;5.95;;;;;;;9.93;53.02;100735.80;2143026;82;31151;-62
2021/04/09 06:42:38;;;;;;;11.45;5.83;;;;;;;10.36;51.49;100734.03;2118665;82;34386;-60
2021/04/09 06:45:40;;;;;;;13.13;6.53;;;;;;;10.67;50.11;100725.20;2117132;83;29170;-63
2021/04/09 06:48:43;;;;;;;16.23;8.43;;;;;;;10.97;50.07;100721.62;2140053;81;27618;-62
2021/04/09 06:51:46;;;;;;;9.28;5.40;;;;;;;11.31;49.71;100716.55;2124393;83;28906;-61
2021/04/09 06:54:48;;;;;;;12.15;7.00;;;;;;;11.59;47.76;100713.43;2109241;83;31139;-60
2021/04/09 06:57:54;;;;;;;11.48;5.72;;;;;;;11.81;47.18;100715.98;2101722;83;33136;-62
2021/04/09 07:00:59;;;;;;;11.15;5.85;;;;;;;12.00;46.48;100714.64;2107297;83;29172;-62
2021/04/09 07:04:01;;;;;;;;;;;;;;;12.26;46.25;100703.06;2122416;83;27616;-61
2021/04/09 07:07:15;;;;;;;12.10;6.53;;;;;;;12.51;45.78;100701.83;2102294;84;28043;-61
2021/04/09 07:10:18;;;;;;;11.50;6.35;;;;;;;12.73;44.52;100690.83;2113563;83;31158;-63
2021/04/09 07:13:20;;;;;;;11.48;6.05;;;;;;;13.01;44.77;100693.39;2105997;83;33136;-63
2021/04/09 07:16:23;;;;;;;13.25;6.50;;;;;;;13.31;44.90;100690.47;2104481;83;29219;-63
2021/04/09 07:19:35;;;;;;;11.80;5.58;;;;;;;13.63;43.36;100695.45;2110279;83;27644;-65
2021/04/09 07:22:37;;;;;;;11.50;6.15;;;;;;;13.96;42.20;100697.19;2135262;83;28832;-61
2021/04/09 07:25:44;;;;;;;7.85;4.92;;;;;;;14.30;43.70;100689.44;2107122;83;32163;-62
2021/04/09 07:28:47;;;;;;;6.42;4.67;;;;;;;14.66;42.37;100690.41;2124311;83;33101;-62
2021/04/09 07:31:49;;;;;;;10.93;5.62;;;;;;;14.92;41.54;100693.85;2104666;84;29115;-63
2021/04/09 07:34:59;;;;;;;22.77;10.30;;;;;;;15.14;40.94;100687.48;2104763;84;27674;-65
2021/04/09 07:38:01;;;;;;;17.92;8.38;;;;;;;15.41;40.61;100680.44;2100754;83;31100;-62
2021/04/09 07:41:07;;;;;;;9.33;4.70;;;;;;;15.72;40.90;100679.84;2126433;83;32559;-61
2021/04/09 07:44:17;;;;;;;8.60;5.37;;;;;;;16.04;39.71;100676.38;2136618;83;33104;-62
2021/04/09 07:47:20;;;;;;;16.97;8.70;;;;;;;16.52;38.34;100658.29;2136589;83;29162;-61
2021/04/09 07:50:38;;;;;;;12.10;5.95;;;;;;;16.81;38.07;100659.44;2136370;83;27697;-60
2021/04/09 07:53:41;;;;;;;17.32;7.72;;;;;;;16.81;38.07;100659.44;2158366;81;28819;-62
2021/04/09 07:56:49;;;;;;;8.40;5.17;;;;;;;17.09;37.62;100650.73;2184295;81;31142;-62
2021/04/09 07:59:52;;;;;;;8.60;4.85;;;;;;;17.27;37.63;100647.22;2160810;81;33536;-62
2021/04/09 08:02:56;;;;;;;9.68;5.35;;;;;;;17.56;37.38;100645.56;2147124;81;29156;-64
2021/04/09 08:06:09;;;;;;;9.25;4.95;;;;;;;17.85;35.84;100651.16;2167660;81;27737;-62
2021/04/09 08:09:11;;;;;;;7.80;4.90;;;;;;;18.05;36.66;100636.13;2144398;81;29701;-63
2021/04/09 08:12:32;;;;;;;11.08;5.12;;;;;;;18.22;36.03;100641.60;2146885;82;32107;-62
2021/04/09 08:15:35;;;;;;;10.60;5.30;;;;;;;18.38;36.17;100632.66;2125945;82;33119;-62
2021/04/09 08:18:38;;;;;;;10.35;6.33;;;;;;;18.48;35.14;100625.19;2134663;82;29165;-62
2021/04/09 08:21:44;;;;;;;11.22;5.85;;;;;;;18.44;34.95;100627.28;2148945;82;27793;-62
2021/04/09 08:24:47;;;;;;;8.83;5.28;;;;;;;18.49;34.99;100625.05;2142974;82;29020;-62
2021/04/09 08:27:49;;;;;;;8.35;5.25;;;;;;;18.62;34.00;100628.15;2136526;83;31140;-61
2021/04/09 08:30:52;;;;;;;10.43;6.15;;;;;;;18.65;34.11;100619.77;2142531;82;33138;-63
2021/04/09 08:33:55;;;;;;;9.28;5.22;;;;;;;18.73;34.40;100617.33;2158365;82;30090;-62
2021/04/09 08:36:58;;;;;;;10.28;5.30;;;;;;;18.71;33.45;100617.06;2145050;82;27712;-62
2021/04/09 08:40:01;;;;;;;12.28;5.47;;;;;;;18.67;33.66;100619.16;2136845;83;28754;-62
2021/04/09 08:43:03;;;;;;;64.70;8.68;;;;;;;18.53;33.38;100619.77;2136878;83;31190;-61
2021/04/09 08:46:06;;;;;;;9.18;5.17;;;;;;;18.30;33.19;100606.64;2136850;83;33198;-60
2021/04/09 08:49:10;;;;;;;8.15;5.83;;;;;;;18.07;33.17;100609.27;2136263;82;29178;-61
2021/04/09 08:52:15;;;;;;;13.55;6.00;;;;;;;17.80;32.31;100609.47;2148660;82;27719;-61
2021/04/09 08:55:18;;;;;;;9.10;5.50;;;;;;;17.52;32.40;100609.34;2146369;82;28824;-62
2021/04/09 08:58:20;;;;;;;15.35;6.30;;;;;;;17.14;32.66;100601.20;2113179;82;31132;-61
2021/04/09 09:01:23;;;;;;;7.83;5.35;;;;;;;16.71;32.45;100589.37;2126605;82;33128;-63
2021/04/09 09:04:30;;;;;;;9.93;6.28;;;;;;;16.54;32.55;100591.44;2147368;82;29172;-61
2021/04/09 09:11:05;;;;;;;15.60;7.20;;;;;;;16.49;32.10;100588.65;2331915;76;27662;-64
2021/04/09 09:14:29;;;;;;;10.75;6.58;;;;;;;16.20;32.34;100572.16;2293052;77;28280;-61
2021/04/09 09:17:38;;;;;;;9.80;5.65;;;;;;;16.09;32.47;100572.00;2205996;80;29233;-63
2021/04/09 09:20:45;;;;;;;9.38;6.03;;;;;;;16.09;32.47;100572.00;2245742;79;31129;-62
2021/04/09 09:24:01;;;;;;;13.03;7.10;;;;;;;16.05;32.31;100565.95;2239384;79;33116;-62
2021/04/09 09:27:11;;;;;;;10.05;5.30;;;;;;;15.85;31.85;100548.84;2214372;77;28578;-62
2021/04/09 09:30:37;;;;;;;13.83;6.40;;;;;;;15.85;31.85;100548.84;2179336;80;27795;-62
2021/04/09 09:33:39;;;;;;;;;;;;;;;15.70;32.10;100547.56;2181938;81;28881;-63
2021/04/09 09:37:14;;;;;;;10.85;5.78;;;;;;;15.61;32.56;100552.25;2179159;81;31136;-63
2021/04/09 09:40:18;;;;;;;14.00;7.22;;;;;;;15.54;31.57;100547.75;2179313;81;34063;-62
2021/04/09 09:43:32;;;;;;;8.10;6.53;;;;;;;15.41;32.33;100540.05;2121863;81;28998;-62
2021/04/09 09:47:01;;;;;;;12.23;6.87;;;;;;;15.36;32.91;100537.66;2213123;80;27579;-63
2021/04/09 09:50:10;;;;;;;8.15;6.05;;;;;;;15.34;32.63;100540.95;2213313;80;28818;-62
2021/04/09 09:53:12;;;;;;;11.12;6.83;;;;;;;15.25;32.34;100529.41;2178357;81;31137;-63
2021/04/09 09:56:28;;;;;;;14.00;7.15;;;;;;;15.13;32.45;100523.87;2193743;80;34038;-63
2021/04/09 09:59:30;;;;;;;;;;;;;;;15.11;32.65;100523.09;2220530;80;29894;-62
2021/04/09 10:02:33;;;;;;;13.00;6.78;;;;;;;14.95;31.73;100527.75;2190892;80;27660;-62
2021/04/09 10:05:37;;;;;;;10.40;7.15;;;;;;;14.83;32.79;100518.11;2179179;81;28601;-63
2021/04/09 10:08:42;;;;;;;9.73;6.87;;;;;;;14.83;32.32;100511.87;2189865;80;31124;-62
2021/04/09 10:11:45;;;;;;;12.37;6.65;;;;;;;14.76;31.69;100508.70;2205206;79;33075;-63
2021/04/09 10:14:48;;;;;;;12.18;6.60;;;;;;;14.61;32.24;100503.76;2228904;79;28866;-63
2021/04/09 10:18:06;;;;;;;11.97;7.40;;;;;;;14.54;31.69;100495.69;2210669;79;27638;-63
2021/04/09 10:21:27;;;;;;;11.63;6.85;;;;;;;14.46;32.29;100496.17;2189286;81;28800;-64
2021/04/09 10:24:38;;;;;;;15.05;8.00;;;;;;;14.37;32.51;100490.00;2188384;81;32361;-64
2021/04/09 10:27:43;;;;;;;10.95;7.40;;;;;;;14.38;32.48;100488.58;2188948;81;34238;-64
2021/04/09 10:30:46;;;;;;;18.42;8.03;;;;;;;14.38;33.00;100484.53;2188933;81;28872;-63
2021/04/09 10:33:54;;;;;;;10.05;7.15;;;;;;;14.35;32.80;100486.06;2212352;79;27206;-64
2021/04/09 10:36:57;;;;;;;13.20;7.35;;;;;;;14.34;33.25;100483.45;2233422;78;28797;-63
2021/04/09 10:39:59;;;;;;;9.58;7.50;;;;;;;14.40;33.12;100481.23;2252548;79;31901;-63
2021/04/09 10:43:02;;;;;;;9.58;6.42;;;;;;;14.46;33.73;100469.22;2201984;78;33127;-63
2021/04/09 10:46:14;;;;;;;11.48;6.55;;;;;;;14.54;33.39;100479.52;2242626;79;29325;-63
2021/04/09 10:49:19;;;;;;;16.55;7.65;;;;;;;14.55;33.32;100460.53;2252473;79;27634;-62
2021/04/09 10:52:21;;;;;;;9.63;7.22;;;;;;;14.53;33.17;100461.11;2217142;80;29646;-63
2021/04/09 10:55:31;;;;;;;10.75;6.75;;;;;;;14.45;32.64;100458.05;2193918;80;32469;-62
2021/04/09 10:58:36;;;;;;;8.45;6.45;;;;;;;14.36;32.18;100451.41;2201231;78;33091;-63
2021/04/09 11:01:40;;;;;;;9.48;6.87;;;;;;;14.23;32.60;100446.42;2268689;78;28696;-63
2021/04/09 11:04:53;;;;;;;12.00;7.75;;;;;;;14.20;33.05;100446.60;2268761;78;27648;-64
2021/04/09 11:07:55;;;;;;;14.95;7.17;;;;;;;14.12;32.97;100450.63;2268602;78;29527;-64
2021/04/09 11:11:04;;;;;;;13.48;7.03;;;;;;;14.10;33.16;100439.08;2268382;78;32000;-64
2021/04/09 11:14:10;;;;;;;12.95;8.28;;;;;;;14.13;32.94;100427.27;2268083;78;33104;-63
2021/04/09 11:17:26;;;;;;;11.75;6.85;;;;;;;14.10;33.11;100422.06;2189218;81;29801;-63
2021/04/09 11:20:33;;;;;;;11.63;6.05;;;;;;;14.06;33.02;100424.09;2188467;81;27613;-62
2021/04/09 11:23:41;;;;;;;11.43;6.75;;;;;;;14.04;33.23;100430.05;2189201;81;29771;-62
2021/04/09 11:26:43;;;;;;;15.13;6.40;;;;;;;14.09;33.61;100414.94;2189174;81;31222;-63
2021/04/09 11:29:46;;;;;;;14.03;7.10;;;;;;;14.14;32.78;100415.53;2188900;79;32997;-62
2021/04/09 11:32:52;;;;;;;9.63;7.00;;;;;;;14.08;32.78;100410.02;2188744;81;31135;-62
2021/04/09 11:35:54;;;;;;;12.70;6.50;;;;;;;14.07;32.70;100412.81;2189377;79;27843;-62
2021/04/09 11:39:10;;;;;;;10.23;7.30;;;;;;;14.04;32.93;100397.72;2188925;81;28894;-62
2021/04/09 11:42:12;;;;;;;13.48;6.95;;;;;;;14.07;32.47;100399.34;2189023;81;31181;-62
2021/04/09 11:45:16;;;;;;;14.95;7.12;;;;;;;14.15;32.74;100397.02;2188907;81;33623;-62
2021/04/09 11:48:25;;;;;;;18.35;7.80;;;;;;;14.27;33.19;100387.30;2189054;81;29054;-62
2021/04/09 11:51:28;;;;;;;9.65;6.10;;;;;;;14.33;32.61;100384.23;2190704;79;27616;-62
2021/04/09 11:54:32;;;;;;;11.63;7.00;;;;;;;14.39;32.43;100385.19;2216301;79;28812;-62
2021/04/09 11:57:34;;;;;;;9.08;6.55;;;;;;;14.48;32.94;100380.16;2189048;81;31168;-62
2021/04/09 12:00:37;;;;;;;7.87;6.35;;;;;;;14.64;32.64;100371.95;2189047;79;33137;-61
2021/04/09 12:03:41;;;;;;;12.18;7.53;;;;;;;14.79;32.44;100376.36;2189086;81;28848;-62
2021/04/09 12:06:43;;;;;;;10.48;6.95;;;;;;;14.89;32.23;100369.37;2189291;81;27650;-62
2021/04/09 12:09:56;;;;;;;10.13;5.95;;;;;;;14.93;32.38;100352.48;2224876;78;29949;-62
2021/04/09 12:12:58;;;;;;;11.22;6.10;;;;;;;15.06;32.31;100359.78;2216760;80;31151;-61
2021/04/09 12:16:00;;;;;;;11.73;6.45;;;;;;;15.22;32.17;100346.97;2217705;80;33270;-62
2021/04/09 12:19:03;;;;;;;12.35;5.83;;;;;;;15.31;32.38;100343.62;2217539;80;29217;-61
2021/04/09 12:22:06;;;;;;;11.90;7.03;;;;;;;15.45;32.23;100342.68;2217713;80;28099;-61
2021/04/09 12:25:10;;;;;;;9.15;6.62;;;;;;;15.63;32.59;100334.27;2217193;78;28814;-62
2021/04/09 12:28:13;;;;;;;12.25;6.28;;;;;;;15.75;32.21;100333.39;2217472;80;31136;-62
2021/04/09 12:31:15;;;;;;;10.98;5.92;;;;;;;15.88;31.95;100323.08;2187845;80;34481;-61
2021/04/09 12:37:32;;;;;;;10.53;6.25;;;;;;;16.00;31.17;100324.05;2342383;76;32264;-66
2021/04/09 12:40:34;;;;;;;10.95;5.92;;;;;;;15.99;31.36;100316.41;2302907;77;27600;-69
2021/04/09 12:43:36;;;;;;;8.65;6.12;;;;;;;16.06;31.12;100300.14;2303470;77;28801;-63
2021/04/09 12:46:39;;;;;;;9.08;6.25;;;;;;;16.15;31.18;100301.78;2302403;77;31178;-63
2021/04/09 12:49:41;;;;;;;11.00;6.45;;;;;;;16.29;31.54;100290.84;2292174;76;34037;-61
2021/04/09 12:52:44;;;;;;;12.28;6.37;;;;;;;16.47;31.50;100296.71;2261752;78;28536;-61
2021/04/09 12:55:46;;;;;;;9.28;6.17;;;;;;;16.61;31.72;100292.98;2263774;75;27631;-61
2021/04/09 12:58:48;;;;;;;9.38;6.08;;;;;;;16.68;30.92;100290.67;2292587;75;28839;-62
2021/04/09 13:01:51;;;;;;;12.68;8.03;;;;;;;16.68;31.31;100288.81;2300512;77;31138;-61
2021/04/09 13:04:53;;;;;;;15.13;6.40;;;;;;;16.77;31.37;100283.70;2301795;77;33113;-63
2021/04/09 13:07:56;;;;;;;9.43;6.33;;;;;;;16.83;30.68;100271.04;2300779;77;28843;-63
2021/04/09 13:10:58;;;;;;;8.50;6.53;;;;;;;16.83;30.68;100271.04;2303410;77;27676;-63
2021/04/09 13:14:01;;;;;;;10.70;5.72;;;;;;;16.73;30.76;100264.11;2267477;77;28807;-63
2021/04/09 13:17:03;;;;;;;8.05;5.75;;;;;;;16.70;30.05;100261.67;2261602;78;32178;-62
2021/04/09 13:20:07;;;;;;;10.38;6.25;;;;;;;16.58;30.26;100256.70;2299406;77;33118;-63
2021/04/09 13:23:09;;;;;;;10.55;6.55;;;;;;;16.48;29.77;100248.41;2265286;77;28901;-63
2021/04/09 13:26:12;;;;;;;8.58;6.05;;;;;;;16.46;30.53;100257.13;2261657;77;27593;-63
2021/04/09 13:29:14;;;;;;;9.13;5.87;;;;;;;16.41;30.34;100252.55;2262021;77;30276;-71
2021/04/09 13:32:16;;;;;;;14.43;8.40;;;;;;;16.41;30.34;100252.55;2261644;78;31132;-70
2021/04/09 13:35:18;;;;;;;12.33;8.75;;;;;;;16.35;30.89;100249.81;2260541;78;33092;-63
2021/04/09 13:38:22;;;;;;;12.53;7.92;;;;;;;16.35;30.89;100249.81;2267408;77;28952;-63
2021/04/09 13:41:24;;;;;;;17.40;8.05;;;;;;;16.17;30.58;100222.33;2255940;77;27667;-66
2021/04/09 13:44:26;;;;;;;11.70;6.55;;;;;;;16.29;30.20;100236.78;2276973;76;29257;-65
2021/04/09 13:47:28;;;;;;;9.60;6.80;;;;;;;16.29;30.20;100236.78;2296641;77;32580;-65
2021/04/09 13:50:31;;;;;;;15.20;9.18;;;;;;;16.30;30.62;100237.63;2258658;77;33544;-65
2021/04/09 13:53:36;;;;;;;11.55;7.42;;;;;;;16.49;30.86;100235.73;2254830;78;29902;-64
2021/04/09 13:56:37;;;;;;;9.65;7.08;;;;;;;16.49;30.86;100235.73;2268350;77;34513;-65
2021/04/09 13:59:39;;;;;;;15.50;5.97;;;;;;;16.55;30.63;100230.73;2278271;77;29225;-65
2021/04/09 14:02:42;;;;;;;9.60;5.92;;;;;;;16.48;30.68;100211.03;2296066;77;29871;-65
2021/04/09 14:05:44;;;;;;;11.40;7.83;;;;;;;16.62;30.03;100228.91;2256449;77;33103;-65
2021/04/09 14:08:46;;;;;;;19.57;6.75;;;;;;;16.62;30.03;100228.91;2269093;77;28034;-66
2021/04/09 14:11:49;;;;;;;11.43;6.97;;;;;;;16.58;30.05;100219.30;2264801;76;27652;-66
2021/04/09 14:14:51;;;;;;;12.63;7.37;;;;;;;16.61;30.54;100224.48;2264242;77;28803;-66
2021/04/09 14:17:53;;;;;;;17.48;10.50;;;;;;;16.63;30.06;100233.34;2271361;76;31582;-65